Time;durP1;ratioP1;P1;durP2;ratioP2;P2;SDS_P1;SDS_P2;PMS_P1;PMS_P2;Temp;Humidity;BMP_temperature;BMP_pressure;BME280_temperature;BME280_humidity;BME280_pressure;Samples;Min_cycle;Max_cycle;Signal;HPM_P1;HPM_P2
2022/09/29 00:01:16;;;;;;;2.10;0.70;;;9.10;99.90;;;;;;5072319;28;20209;-57
2022/09/29 00:03:41;;;;;;;1.00;0.70;;;9.20;99.90;;;;;;5072455;28;20628;-57
2022/09/29 00:06:15;;;;;;;5.00;0.60;;;9.10;99.90;;;;;;5072366;28;20173;-57
2022/09/29 00:08:41;;;;;;;2.87;0.80;;;8.80;99.90;;;;;;5072162;28;20239;-57
2022/09/29 00:11:12;;;;;;;9.70;1.20;;;8.70;99.90;;;;;;5080821;28;20176;-57
2022/09/29 00:13:38;;;;;;;5.53;0.77;;;8.80;99.90;;;;;;5092445;28;20175;-57
2022/09/29 00:16:05;;;;;;;12.23;0.90;;;8.80;99.90;;;;;;5092333;28;20183;-57
2022/09/29 00:18:32;;;;;;;11.37;0.90;;;8.80;99.90;;;;;;5092386;28;20172;-58
2022/09/29 00:21:06;;;;;;;4.07;0.57;;;9.00;99.90;;;;;;5092360;28;20286;-58
2022/09/29 00:23:33;;;;;;;5.40;0.87;;;9.00;99.90;;;;;;5092339;28;20196;-58
2022/09/29 00:26:04;;;;;;;15.43;0.93;;;8.90;99.90;;;;;;5092269;28;20478;-58
2022/09/29 00:28:30;;;;;;;3.80;0.90;;;9.20;99.90;;;;;;5092079;28;20168;-58
2022/09/29 00:30:58;;;;;;;2.63;0.93;;;9.10;99.90;;;;;;5092131;28;20233;-58
2022/09/29 00:33:25;;;;;;;1.13;0.60;;;;;;;;;;5092252;28;20168;-58
2022/09/29 00:36:02;;;;;;;0.63;0.50;;;9.10;99.90;;;;;;5092154;28;20175;-58
2022/09/29 00:38:29;;;;;;;2.67;0.60;;;9.20;99.90;;;;;;5091893;28;20210;-58
2022/09/29 00:40:55;;;;;;;3.20;0.50;;;9.10;99.90;;;;;;5091971;28;20210;-58
2022/09/29 00:43:49;;;;;;;0.70;0.53;;;9.10;99.90;;;;;;5091992;28;20164;-58
2022/09/29 00:46:35;;;;;;;1.63;0.70;;;9.20;99.90;;;;;;5089402;28;20718;-58
2022/09/29 00:49:21;;;;;;;2.20;0.70;;;9.30;99.90;;;;;;5091873;28;20171;-58
2022/09/29 00:52:04;;;;;;;3.13;0.63;;;9.30;99.90;;;;;;5087601;28;20229;-58
2022/09/29 00:54:38;;;;;;;4.73;1.07;;;9.10;99.90;;;;;;5107551;28;20262;-58
2022/09/29 00:57:07;;;;;;;2.37;0.67;;;9.40;99.90;;;;;;5091792;28;20164;-58
2022/09/29 00:59:55;;;;;;;2.67;0.70;;;9.50;99.90;;;;;;5091880;28;20164;-58
2022/09/29 01:02:22;;;;;;;1.30;0.60;;;9.50;99.90;;;;;;5091523;28;20269;-58
2022/09/29 01:04:51;;;;;;;2.87;0.70;;;9.60;99.90;;;;;;5091797;28;20168;-58
2022/09/29 01:07:18;;;;;;;2.17;0.87;;;9.60;99.90;;;;;;5091918;28;20168;-58
2022/09/29 01:09:44;;;;;;;3.07;0.80;;;9.70;99.90;;;;;;5091651;28;20175;-58
2022/09/29 01:12:10;;;;;;;3.83;1.00;;;;;;;;;;5091476;28;20199;-58
2022/09/29 01:14:37;;;;;;;1.10;0.90;;;9.70;99.90;;;;;;5091564;28;20649;-58
2022/09/29 01:17:04;;;;;;;1.93;0.80;;;10.10;99.90;;;;;;5091359;28;20180;-58
2022/09/29 01:20:06;;;;;;;3.33;1.00;;;9.80;99.90;;;;;;5091361;28;20254;-58
2022/09/29 01:23:28;;;;;;;1.43;0.77;;;9.50;99.90;;;;;;5091257;28;20247;-58
2022/09/29 01:26:15;;;;;;;2.73;0.90;;;9.90;99.90;;;;;;5068990;28;20659;-58
2022/09/29 01:29:07;;;;;;;1.33;0.63;;;10.00;99.90;;;;;;5068893;28;20177;-58
2022/09/29 01:32:14;;;;;;;2.30;0.60;;;9.80;99.90;;;;;;5089543;28;20183;-58
2022/09/29 01:35:03;;;;;;;4.97;1.30;;;9.80;99.90;;;;;;5080468;28;20187;-59
2022/09/29 01:37:50;;;;;;;3.67;0.90;;;9.90;99.90;;;;;;5087900;28;20213;-58
2022/09/29 01:40:22;;;;;;;4.43;0.83;;;10.10;99.90;;;;;;5091001;28;20265;-58
2022/09/29 01:43:03;;;;;;;4.70;0.70;;;10.10;99.90;;;;;;5106874;28;20184;-57
2022/09/29 01:45:32;;;;;;;9.67;0.70;;;10.10;99.90;;;;;;5091150;28;20175;-56
2022/09/29 01:48:28;;;;;;;1.83;0.60;;;10.00;99.90;;;;;;5091198;28;20178;-57
2022/09/29 01:50:59;;;;;;;2.77;0.80;;;10.10;99.90;;;;;;5089943;28;20187;-57
2022/09/29 01:53:37;;;;;;;3.27;0.70;;;10.00;99.90;;;;;;5091208;28;20176;-57
2022/09/29 01:56:08;;;;;;;1.87;0.90;;;10.10;99.90;;;;;;5091114;28;20574;-57
2022/09/29 01:58:48;;;;;;;3.17;1.03;;;10.00;99.90;;;;;;5093963;28;20259;-57
2022/09/29 02:01:19;;;;;;;4.47;0.93;;;10.10;99.90;;;;;;5095015;28;20200;-57
2022/09/29 02:04:12;;;;;;;3.00;0.97;;;10.10;99.90;;;;;;5094826;28;20555;-57
2022/09/29 02:06:50;;;;;;;7.40;0.80;;;10.10;99.90;;;;;;5095416;28;20164;-57
2022/09/29 02:09:23;;;;;;;5.00;1.07;;;10.10;99.90;;;;;;5094881;28;20172;-57
2022/09/29 02:11:51;;;;;;;6.30;0.80;;;10.10;99.90;;;;;;5094928;28;20172;-57
2022/09/29 02:14:26;;;;;;;1.80;0.60;;;10.00;99.90;;;;;;5080746;28;20245;-57
2022/09/29 02:17:02;;;;;;;2.80;0.80;;;10.00;99.90;;;;;;5094703;28;20205;-57
2022/09/29 02:19:33;;;;;;;4.30;0.80;;;9.90;99.90;;;;;;5094702;28;20163;-58
2022/09/29 02:21:58;;;;;;;2.10;0.83;;;9.90;99.90;;;;;;5094548;28;20207;-58
2022/09/29 02:24:24;;;;;;;4.67;0.90;;;9.90;99.90;;;;;;5094573;28;20163;-57
2022/09/29 02:26:50;;;;;;;6.50;0.87;;;9.90;99.90;;;;;;5094667;28;20645;-58
2022/09/29 02:29:17;;;;;;;5.93;0.83;;;9.70;99.90;;;;;;5094458;28;20634;-58
2022/09/29 02:31:44;;;;;;;3.97;0.60;;;10.00;99.90;;;;;;5094512;28;20229;-58
2022/09/29 02:34:13;;;;;;;6.87;0.90;;;9.90;99.90;;;;;;5094564;28;20164;-58
2022/09/29 02:37:21;;;;;;;1.93;0.90;;;9.90;99.90;;;;;;5094367;28;20202;-57
2022/09/29 02:39:47;;;;;;;1.93;0.67;;;;;;;;;;5094181;28;20264;-57
2022/09/29 02:42:39;;;;;;;6.53;0.80;;;10.00;99.90;;;;;;5094186;28;20286;-57
2022/09/29 02:45:25;;;;;;;2.57;0.80;;;9.00;99.90;;;;;;5094313;28;20260;-58
2022/09/29 02:48:26;;;;;;;1.93;0.80;;;9.90;99.90;;;;;;5094079;28;20175;-57
2022/09/29 02:51:13;;;;;;;5.67;0.80;;;9.90;99.90;;;;;;5109928;28;20687;-58
2022/09/29 02:54:03;;;;;;;3.17;0.93;;;9.90;99.90;;;;;;5093875;28;20207;-57
2022/09/29 02:57:06;;;;;;;5.63;0.60;;;9.90;99.90;;;;;;5093730;28;20263;-58
2022/09/29 02:59:41;;;;;;;2.70;0.90;;;10.00;99.90;;;;;;5093986;28;20171;-58
2022/09/29 03:02:07;;;;;;;3.17;0.93;;;10.00;99.90;;;;;;5093724;28;20203;-58
2022/09/29 03:04:32;;;;;;;2.90;0.70;;;10.00;99.90;;;;;;5093804;28;20267;-58
2022/09/29 03:06:58;;;;;;;8.53;0.70;;;9.80;99.90;;;;;;5093720;28;20168;-57
2022/09/29 03:09:23;;;;;;;1.90;0.97;;;10.10;99.90;;;;;;5093634;28;20245;-57
2022/09/29 03:11:49;;;;;;;2.70;0.40;;;9.80;99.90;;;;;;5092552;28;20176;-57
2022/09/29 03:17:16;;;;;;;2.63;0.90;;;9.90;99.90;;;;;;5072196;22;20357;-58
2022/09/29 03:19:42;;;;;;;4.17;0.80;;;9.90;99.90;;;;;;5068862;28;20654;-59
2022/09/29 03:22:07;;;;;;;3.17;0.70;;;9.80;99.90;;;;;;5072333;28;20685;-58
2022/09/29 03:24:33;;;;;;;3.40;0.80;;;10.00;99.90;;;;;;5073265;28;20221;-58
2022/09/29 03:26:59;;;;;;;5.03;0.60;;;;;;;;;;5073061;28;20177;-58
2022/09/29 03:29:25;;;;;;;1.97;0.60;;;10.30;99.90;;;;;;5073170;28;20188;-58
2022/09/29 03:31:51;;;;;;;4.23;0.73;;;;;;;;;;5072951;28;20250;-59
2022/09/29 03:34:16;;;;;;;1.67;0.53;;;10.20;99.90;;;;;;5073128;28;20226;-58
2022/09/29 03:36:42;;;;;;;8.13;0.83;;;9.80;99.90;;;;;;5071734;28;20684;-59
2022/09/29 03:39:07;;;;;;;2.23;0.50;;;10.00;99.90;;;;;;5073103;28;20186;-58
2022/09/29 03:41:33;;;;;;;2.63;0.73;;;9.80;99.90;;;;;;5072786;28;20642;-58
2022/09/29 03:43:59;;;;;;;1.60;0.53;;;10.10;99.90;;;;;;5072736;28;20179;-58
2022/09/29 03:46:25;;;;;;;5.70;0.70;;;10.30;99.90;;;;;;5072747;28;20247;-59
2022/09/29 03:48:50;;;;;;;3.03;0.50;;;9.90;99.90;;;;;;5072667;28;20202;-59
2022/09/29 03:51:16;;;;;;;0.80;0.60;;;10.00;99.90;;;;;;5071485;28;20211;-58
2022/09/29 03:53:42;;;;;;;5.00;0.83;;;;;;;;;;5072621;28;20627;-58
2022/09/29 03:56:08;;;;;;;3.10;0.70;;;9.80;99.90;;;;;;5071286;28;20543;-59
2022/09/29 03:58:34;;;;;;;0.63;0.40;;;10.00;99.90;;;;;;5072579;28;20202;-59
2022/09/29 04:01:00;;;;;;;3.67;0.50;;;9.90;99.90;;;;;;5072405;28;20227;-58
2022/09/29 04:03:26;;;;;;;6.83;0.73;;;;;;;;;;5072651;28;20187;-58
2022/09/29 04:05:52;;;;;;;3.23;0.50;;;10.20;99.90;;;;;;5072351;28;20623;-58
2022/09/29 04:08:18;;;;;;;1.47;0.50;;;;;;;;;;5072704;28;20198;-58
2022/09/29 04:10:46;;;;;;;2.00;0.70;;;10.00;99.90;;;;;;5072254;28;20188;-58
2022/09/29 04:13:12;;;;;;;3.70;0.77;;;9.90;99.90;;;;;;5072083;28;20177;-58
2022/09/29 04:15:38;;;;;;;3.03;0.73;;;10.00;99.90;;;;;;5071996;28;20169;-58
2022/09/29 04:18:04;;;;;;;2.87;1.17;;;9.70;99.90;;;;;;5072353;28;20650;-58
2022/09/29 04:20:30;;;;;;;2.30;1.10;;;10.00;99.90;;;;;;5071474;28;20714;-58
2022/09/29 04:22:56;;;;;;;4.17;1.17;;;;;;;;;;5072115;28;20314;-59
2022/09/29 04:25:22;;;;;;;3.70;1.07;;;9.90;99.90;;;;;;5072033;28;20656;-58
2022/09/29 04:27:48;;;;;;;2.87;1.00;;;;;;;;;;5071858;28;20255;-58
2022/09/29 04:30:14;;;;;;;5.57;1.30;;;10.10;99.90;;;;;;5071995;28;20210;-58
2022/09/29 04:32:40;;;;;;;3.10;1.60;;;10.00;99.90;;;;;;5071845;28;20171;-58
2022/09/29 04:35:06;;;;;;;3.00;1.43;;;9.70;99.90;;;;;;5071918;28;20164;-58
2022/09/29 04:37:32;;;;;;;3.73;1.10;;;;;;;;;;5071736;28;20173;-59
2022/09/29 04:39:58;;;;;;;6.07;1.30;;;10.10;99.90;;;;;;5071627;28;20230;-59
2022/09/29 04:42:23;;;;;;;2.73;1.17;;;;;;;;;;5071673;28;20208;-59
2022/09/29 04:44:49;;;;;;;3.13;1.33;;;9.80;99.90;;;;;;5071746;28;20259;-59
2022/09/29 04:47:15;;;;;;;3.50;1.40;;;10.10;99.90;;;;;;5071959;28;20178;-59
2022/09/29 04:49:41;;;;;;;2.13;1.37;;;9.60;99.90;;;;;;5071662;28;20165;-59
2022/09/29 04:52:08;;;;;;;4.23;1.43;;;10.20;99.90;;;;;;5071610;28;20172;-59
2022/09/29 04:54:34;;;;;;;2.57;1.30;;;8.60;99.90;;;;;;5071511;28;20623;-59
2022/09/29 04:57:00;;;;;;;3.17;1.37;;;10.10;99.90;;;;;;5071431;28;20781;-59
2022/09/29 04:59:27;;;;;;;2.17;0.80;;;10.00;99.90;;;;;;5071498;28;20190;-59
2022/09/29 05:01:52;;;;;;;1.23;1.07;;;10.30;99.90;;;;;;5071442;28;20227;-59
2022/09/29 05:04:18;;;;;;;1.97;1.17;;;10.00;99.90;;;;;;5071367;28;20177;-59
2022/09/29 05:06:44;;;;;;;2.97;0.90;;;10.20;99.90;;;;;;5071435;28;20164;-59
2022/09/29 05:09:11;;;;;;;4.90;1.00;;;10.10;99.90;;;;;;5069982;28;20519;-59
2022/09/29 05:11:37;;;;;;;2.03;1.30;;;;;;;;;;5071238;28;20688;-59
2022/09/29 05:14:03;;;;;;;3.73;1.37;;;;;;;;;;5071407;28;20246;-59
2022/09/29 05:16:29;;;;;;;2.57;1.30;;;10.00;99.90;;;;;;5071157;28;20708;-59
2022/09/29 05:18:54;;;;;;;3.53;1.20;;;10.10;99.90;;;;;;5071295;28;20176;-59
2022/09/29 05:21:20;;;;;;;3.63;1.33;;;;;;;;;;5062490;28;20213;-59
2022/09/29 05:23:46;;;;;;;2.53;1.50;;;10.40;99.90;;;;;;5066152;28;20328;-59
2022/09/29 05:26:12;;;;;;;2.00;1.20;;;;;;;;;;5068352;28;20222;-59
2022/09/29 05:28:42;;;;;;;2.93;1.27;;;10.30;99.90;;;;;;5051043;28;20229;-59
2022/09/29 05:31:08;;;;;;;2.80;1.10;;;10.70;99.90;;;;;;5051151;28;20218;-59
2022/09/29 05:33:35;;;;;;;3.60;1.60;;;10.40;99.90;;;;;;5054070;28;20647;-59
2022/09/29 05:36:06;;;;;;;2.67;1.23;;;10.20;99.90;;;;;;5055378;28;20176;-59
2022/09/29 05:38:32;;;;;;;4.70;1.57;;;10.30;99.90;;;;;;5055233;28;20200;-59
2022/09/29 05:40:57;;;;;;;1.63;1.13;;;10.40;99.90;;;;;;5054885;28;20211;-59
2022/09/29 05:43:24;;;;;;;4.70;1.73;;;10.70;99.90;;;;;;5055027;28;20165;-58
2022/09/29 05:45:50;;;;;;;2.17;1.40;;;;;;;;;;5054879;28;20777;-59
2022/09/29 05:48:17;;;;;;;3.50;1.60;;;10.40;99.90;;;;;;5054885;28;20227;-59
2022/09/29 05:50:42;;;;;;;2.63;1.60;;;10.60;99.90;;;;;;5053601;28;20172;-59
2022/09/29 05:53:09;;;;;;;4.57;1.60;;;10.70;99.90;;;;;;5055227;28;20173;-59
2022/09/29 05:55:36;;;;;;;4.10;1.60;;;10.40;99.90;;;;;;5054864;28;20175;-59
2022/09/29 05:58:02;;;;;;;1.67;1.33;;;;;;;;;;5054731;28;20201;-59
2022/09/29 06:00:30;;;;;;;3.07;1.40;;;10.70;99.90;;;;;;5054730;28;20659;-59
2022/09/29 06:03:00;;;;;;;4.47;1.70;;;10.10;99.90;;;;;;5054615;28;20639;-59
2022/09/29 06:05:27;;;;;;;3.70;2.00;;;10.60;99.90;;;;;;5054586;28;20705;-59
2022/09/29 06:07:53;;;;;;;5.43;2.13;;;;;;;;;;5054515;28;20261;-59
2022/09/29 06:10:19;;;;;;;3.47;1.93;;;;;;;;;;5054458;28;20222;-58
2022/09/29 06:12:45;;;;;;;3.10;1.93;;;;;;;;;;5054356;28;20169;-58
2022/09/29 06:15:11;;;;;;;4.33;1.70;;;10.50;99.90;;;;;;5054585;28;20243;-58
2022/09/29 06:17:37;;;;;;;3.60;1.80;;;;;;;;;;5054096;28;20316;-58
2022/09/29 06:20:05;;;;;;;4.40;2.03;;;10.80;99.90;;;;;;5054146;28;20165;-58
2022/09/29 06:22:31;;;;;;;2.57;1.90;;;10.50;99.90;;;;;;5054066;28;20209;-58
2022/09/29 06:24:57;;;;;;;2.80;1.67;;;11.00;99.90;;;;;;5053045;28;20172;-58
2022/09/29 06:27:23;;;;;;;4.43;2.10;;;10.60;99.90;;;;;;5054070;28;20243;-58
2022/09/29 06:29:49;;;;;;;7.17;2.13;;;;;;;;;;5054048;28;20185;-58
2022/09/29 06:32:15;;;;;;;6.13;1.83;;;;;;;;;;5054038;28;20267;-58
2022/09/29 06:37:35;;;;;;;8.50;2.13;;;10.40;99.90;;;;;;5053978;28;20235;-58
2022/09/29 06:40:06;;;;;;;2.50;1.90;;;10.60;99.90;;;;;;5053856;28;20673;-58
2022/09/29 06:42:32;;;;;;;4.73;2.13;;;11.10;99.90;;;;;;5053623;28;20694;-58
2022/09/29 06:44:58;;;;;;;7.90;2.13;;;;;;;;;;5053233;28;20256;-59
2022/09/29 06:47:24;;;;;;;4.47;2.03;;;10.60;99.90;;;;;;5053609;28;20204;-58
2022/09/29 06:49:50;;;;;;;4.23;2.23;;;10.90;99.90;;;;;;5053524;28;20192;-58
2022/09/29 06:52:16;;;;;;;3.67;2.23;;;10.70;99.90;;;;;;5053755;28;20173;-58
2022/09/29 06:54:42;;;;;;;6.37;2.07;;;11.10;99.90;;;;;;5053520;28;20179;-59
2022/09/29 06:57:08;;;;;;;4.57;2.23;;;10.60;99.90;;;;;;5053537;28;20271;-58
2022/09/29 06:59:34;;;;;;;3.83;2.70;;;10.70;99.90;;;;;;5053454;28;20174;-58
2022/09/29 07:02:00;;;;;;;3.20;2.30;;;;;;;;;;5053215;28;20216;-58
2022/09/29 07:04:26;;;;;;;4.20;2.27;;;10.80;99.90;;;;;;5052064;28;20510;-58
2022/09/29 07:06:51;;;;;;;8.70;2.70;;;10.90;99.90;;;;;;5053299;28;20296;-58
2022/09/29 07:09:17;;;;;;;4.33;2.50;;;10.70;99.90;;;;;;5053208;28;20248;-58
2022/09/29 07:11:45;;;;;;;4.80;2.13;;;10.90;99.90;;;;;;5053189;28;20185;-58
2022/09/29 07:14:16;;;;;;;4.23;2.10;;;11.10;99.90;;;;;;5053251;28;20185;-58
2022/09/29 07:16:42;;;;;;;3.83;2.20;;;11.10;99.90;;;;;;5035012;28;20564;-58
2022/09/29 07:19:08;;;;;;;4.30;2.23;;;11.20;99.90;;;;;;5053115;28;20405;-58
2022/09/29 07:21:34;;;;;;;5.83;2.20;;;11.20;99.90;;;;;;5052913;28;20639;-58
2022/09/29 07:24:00;;;;;;;5.60;2.03;;;11.50;99.90;;;;;;5053094;28;20177;-58
2022/09/29 07:26:26;;;;;;;3.60;2.13;;;11.30;99.90;;;;;;5052990;28;20188;-58
2022/09/29 07:28:52;;;;;;;5.70;2.50;;;;;;;;;;5055958;28;20181;-58
2022/09/29 07:31:20;;;;;;;3.60;2.10;;;11.50;99.90;;;;;;5071601;28;20696;-59
2022/09/29 07:33:48;;;;;;;3.47;2.13;;;11.60;99.90;;;;;;5072699;28;20256;-58
2022/09/29 07:36:15;;;;;;;6.23;2.47;;;11.60;99.90;;;;;;5072809;28;20640;-59
2022/09/29 07:38:41;;;;;;;4.47;2.57;;;11.70;99.90;;;;;;5072725;28;20169;-58
2022/09/29 07:41:09;;;;;;;5.37;2.90;;;11.60;99.90;;;;;;5072662;28;20215;-59
2022/09/29 07:43:35;;;;;;;3.37;2.70;;;11.60;99.90;;;;;;5072570;28;20179;-58
2022/09/29 07:46:01;;;;;;;7.00;3.60;;;;;;;;;;5072719;28;20638;-59
2022/09/29 07:48:29;;;;;;;6.40;3.50;;;11.30;99.90;;;;;;5072769;28;20188;-59
2022/09/29 07:51:03;;;;;;;4.73;3.70;;;11.50;99.90;;;;;;5072808;28;20318;-58
2022/09/29 07:53:29;;;;;;;6.67;3.33;;;13.30;99.90;;;;;;5071429;28;20203;-58
2022/09/29 07:55:55;;;;;;;7.67;3.90;;;;;;;;;;5071591;28;20173;-58
2022/09/29 07:58:21;;;;;;;6.50;3.80;;;;;;;;;;5072290;28;20171;-58
2022/09/29 08:00:53;;;;;;;4.80;3.67;;;11.60;99.90;;;;;;5072226;28;20646;-58
2022/09/29 08:03:20;;;;;;;9.37;4.33;;;;;;;;;;5072098;28;20251;-58
2022/09/29 08:05:45;;;;;;;7.53;3.90;;;12.00;99.90;;;;;;5072113;28;20282;-59
2022/09/29 08:08:11;;;;;;;6.43;4.30;;;;;;;;;;5072037;28;20606;-58
2022/09/29 08:10:37;;;;;;;8.10;4.00;;;11.80;99.90;;;;;;5072592;28;20180;-59
2022/09/29 08:13:03;;;;;;;4.47;3.97;;;;;;;;;;5072040;28;20532;-58
2022/09/29 08:15:29;;;;;;;9.20;5.10;;;;;;;;;;5071799;28;20172;-58
2022/09/29 08:17:55;;;;;;;7.43;4.77;;;;;;;;;;5072077;28;20177;-58
2022/09/29 08:20:22;;;;;;;8.80;4.90;;;11.90;99.90;;;;;;5072022;28;20176;-58
2022/09/29 08:22:48;;;;;;;7.53;4.83;;;11.60;99.90;;;;;;5071645;28;20208;-58
2022/09/29 08:25:15;;;;;;;6.70;4.60;;;11.90;99.90;;;;;;5070513;28;20230;-59
2022/09/29 08:27:41;;;;;;;6.30;5.17;;;12.20;99.90;;;;;;5071816;28;20180;-60
2022/09/29 08:30:09;;;;;;;5.90;5.10;;;12.10;99.90;;;;;;5071536;28;20512;-57
2022/09/29 08:32:35;;;;;;;10.60;5.50;;;12.10;99.90;;;;;;5071767;28;20238;-58
2022/09/29 08:35:01;;;;;;;8.37;4.77;;;;;;;;;;5071543;28;20173;-57
2022/09/29 08:37:27;;;;;;;8.63;5.00;;;12.00;99.90;;;;;;5071509;28;20169;-58
2022/09/29 08:39:53;;;;;;;7.00;5.10;;;12.30;99.90;;;;;;5070183;28;20537;-58
2022/09/29 08:42:47;;;;;;;10.53;5.67;;;12.20;99.90;;;;;;5071282;28;20228;-58
2022/09/29 08:45:22;;;;;;;8.00;5.73;;;12.20;99.90;;;;;;5071425;28;20168;-58
2022/09/29 08:47:51;;;;;;;6.03;4.87;;;12.20;99.90;;;;;;5071411;28;20267;-58
2022/09/29 08:50:31;;;;;;;8.60;6.00;;;12.20;99.90;;;;;;5070177;28;20160;-58
2022/09/29 08:53:06;;;;;;;6.40;5.10;;;12.10;99.90;;;;;;5071301;28;20890;-58
2022/09/29 08:55:49;;;;;;;9.37;5.23;;;12.10;99.90;;;;;;5071164;28;20272;-58
2022/09/29 08:58:15;;;;;;;8.43;5.13;;;11.80;99.90;;;;;;5071374;28;20176;-58
2022/09/29 09:01:08;;;;;;;8.93;5.40;;;12.20;99.90;;;;;;5071161;28;20259;-58
2022/09/29 09:03:39;;;;;;;7.13;5.30;;;12.10;99.90;;;;;;5051888;28;20435;-58
2022/09/29 09:06:17;;;;;;;6.80;4.90;;;12.00;99.90;;;;;;5071033;28;20171;-58
2022/09/29 09:08:48;;;;;;;9.00;4.87;;;12.30;99.90;;;;;;5071129;28;20169;-58
2022/09/29 09:11:55;;;;;;;8.47;5.57;;;12.10;99.90;;;;;;5071063;28;20184;-58
2022/09/29 09:14:26;;;;;;;9.97;5.23;;;12.40;99.90;;;;;;5050192;28;20188;-58
2022/09/29 09:16:52;;;;;;;9.87;5.43;;;12.20;99.90;;;;;;5070736;28;20216;-58
2022/09/29 09:19:54;;;;;;;11.60;5.07;;;12.40;99.90;;;;;;5070924;28;20183;-58
2022/09/29 09:22:36;;;;;;;8.37;4.80;;;12.50;99.90;;;;;;5028526;28;20366;-58
2022/09/29 09:25:17;;;;;;;8.70;5.03;;;13.00;99.90;;;;;;5067182;28;20544;-58
2022/09/29 09:27:48;;;;;;;8.20;4.40;;;13.00;99.90;;;;;;5070868;28;20745;-58
2022/09/29 09:30:17;;;;;;;6.47;4.53;;;13.10;99.90;;;;;;5070897;28;20196;-58
2022/09/29 09:32:53;;;;;;;7.77;4.30;;;13.40;99.90;;;;;;5057324;28;20181;-58
2022/09/29 09:35:34;;;;;;;11.85;3.92;;;13.60;99.90;;;;;;5070942;28;20176;-58
2022/09/29 09:38:07;;;;;;;5.30;3.45;;;13.90;99.90;;;;;;5058537;28;20223;-58
2022/09/29 09:40:41;;;;;;;9.60;3.30;;;13.70;99.90;;;;;;5050638;28;20582;-58
2022/09/29 09:43:17;;;;;;;6.65;3.63;;;13.80;99.90;;;;;;5050601;28;20203;-59
2022/09/29 09:45:51;;;;;;;4.43;2.78;;;13.70;99.90;;;;;;5050658;28;20638;-58
2022/09/29 09:48:37;;;;;;;6.28;2.70;;;13.60;99.90;;;;;;5050658;28;20180;-58
2022/09/29 09:51:32;;;;;;;5.50;3.03;;;13.50;99.90;;;;;;5050554;28;20534;-58
2022/09/29 09:54:03;;;;;;;8.30;2.80;;;13.20;99.90;;;;;;5035474;28;20185;-58
2022/09/29 09:57:04;;;;;;;6.50;2.70;;;13.20;99.90;;;;;;5050662;28;20173;-59
2022/09/29 09:59:36;;;;;;;7.95;2.78;;;13.20;99.90;;;;;;5034105;28;20648;-58
2022/09/29 10:02:02;;;;;;;6.50;2.95;;;13.40;99.90;;;;;;5049940;28;20201;-58
2022/09/29 10:04:27;;;;;;;8.32;3.50;;;13.30;99.90;;;;;;5050313;28;20173;-58
2022/09/29 10:06:55;;;;;;;4.97;2.90;;;13.40;99.90;;;;;;5050571;28;20234;-59
2022/09/29 10:09:21;;;;;;;5.88;2.83;;;;;;;;;;5050431;28;20173;-59
2022/09/29 10:11:47;;;;;;;9.07;3.10;;;13.20;99.90;;;;;;5050421;28;20635;-58
2022/09/29 10:14:14;;;;;;;6.65;2.80;;;13.30;99.90;;;;;;5050292;28;20654;-59
2022/09/29 10:16:49;;;;;;;7.13;3.30;;;13.20;99.90;;;;;;5048956;28;20600;-59
2022/09/29 10:19:21;;;;;;;7.20;3.20;;;13.30;99.90;;;;;;5052643;28;20165;-59
2022/09/29 10:21:48;;;;;;;10.02;3.33;;;13.40;99.90;;;;;;5054575;28;20213;-59
2022/09/29 10:24:23;;;;;;;5.22;3.55;;;13.60;99.90;;;;;;5053894;28;20184;-59
2022/09/29 10:26:51;;;;;;;3.40;3.00;;;13.50;99.90;;;;;;5054023;28;20351;-59
2022/09/29 10:29:39;;;;;;;7.90;3.55;;;13.90;99.90;;;;;;5053827;28;20256;-59
2022/09/29 10:32:06;;;;;;;6.90;3.10;;;13.60;99.90;;;;;;5053985;28;20181;-59
2022/09/29 10:34:35;;;;;;;6.47;3.15;;;14.10;99.90;;;;;;5053825;28;20177;-59
2022/09/29 10:37:03;;;;;;;8.32;2.97;;;14.40;99.90;;;;;;5053852;28;20179;-59
2022/09/29 10:39:47;;;;;;;4.97;2.90;;;14.20;99.90;;;;;;5053790;28;20161;-59
2022/09/29 10:42:21;;;;;;;7.68;2.85;;;14.60;99.90;;;;;;5053712;28;20232;-61
2022/09/29 10:45:09;;;;;;;7.18;2.50;;;14.80;99.90;;;;;;5053588;28;20173;-59
2022/09/29 10:47:36;;;;;;;3.38;2.40;;;14.90;99.90;;;;;;5053608;28;20181;-59
2022/09/29 10:50:23;;;;;;;4.72;2.33;;;15.70;99.90;;;;;;5053698;28;20157;-59
2022/09/29 10:52:57;;;;;;;3.85;2.20;;;15.40;99.90;;;;;;5053507;28;20176;-59
2022/09/29 10:55:26;;;;;;;4.70;2.13;;;15.40;99.90;;;;;;5053393;28;20177;-58
2022/09/29 10:57:55;;;;;;;3.90;1.83;;;15.20;99.90;;;;;;5053564;28;20181;-58
2022/09/29 11:00:33;;;;;;;5.78;1.92;;;15.30;99.90;;;;;;5053412;28;20169;-58
2022/09/29 11:03:19;;;;;;;5.50;2.25;;;15.20;99.90;;;;;;5053276;28;20301;-59
2022/09/29 11:05:51;;;;;;;5.07;2.00;;;15.20;99.90;;;;;;5053314;28;20189;-59
2022/09/29 11:08:17;;;;;;;5.50;2.10;;;15.50;99.90;;;;;;5053142;28;20169;-57
2022/09/29 11:10:46;;;;;;;3.83;1.95;;;15.70;99.90;;;;;;5053195;28;20707;-58
2022/09/29 11:13:18;;;;;;;5.68;1.90;;;16.30;99.90;;;;;;5053003;28;20259;-58
2022/09/29 11:15:44;;;;;;;4.32;1.80;;;16.80;99.90;;;;;;5052823;28;20711;-58
2022/09/29 11:18:35;;;;;;;2.65;1.60;;;16.70;99.90;;;;;;5052797;28;20554;-58
2022/09/29 11:21:06;;;;;;;3.67;1.73;;;19.00;99.90;;;;;;5052895;28;20216;-59
2022/09/29 11:23:55;;;;;;;3.47;1.38;;;20.60;99.90;;;;;;5053081;28;20169;-58
2022/09/29 11:26:28;;;;;;;4.32;1.70;;;20.50;99.90;;;;;;5053291;28;20635;-59
2022/09/29 11:29:15;;;;;;;2.67;1.25;;;22.20;99.90;;;;;;5052886;28;20231;-58
2022/09/29 11:31:41;;;;;;;2.97;1.25;;;;;;;;;;5052245;28;20223;-58
2022/09/29 11:34:22;;;;;;;7.25;1.50;;;20.80;99.90;;;;;;5052926;28;20165;-58
2022/09/29 11:37:05;;;;;;;4.32;1.10;;;20.30;99.90;;;;;;5052838;28;20230;-61
2022/09/29 11:39:44;;;;;;;1.83;1.13;;;19.20;99.90;;;;;;5052723;28;20242;-58
2022/09/29 11:42:38;;;;;;;3.13;1.40;;;17.30;99.90;;;;;;5052501;28;20220;-58
2022/09/29 11:45:07;;;;;;;5.13;1.50;;;16.80;99.90;;;;;;5056104;28;20185;-58
2022/09/29 11:47:35;;;;;;;3.47;1.65;;;16.50;99.90;;;;;;5072337;28;20185;-58
2022/09/29 11:50:09;;;;;;;2.75;1.70;;;16.20;99.90;;;;;;5064322;28;20232;-58
2022/09/29 11:53:08;;;;;;;5.60;2.22;;;15.50;99.90;;;;;;5051221;28;20177;-58
2022/09/29 11:55:46;;;;;;;4.38;2.85;;;15.30;99.90;;;;;;5052815;28;20180;-58
2022/09/29 11:58:40;;;;;;;5.35;3.05;;;15.40;99.90;;;;;;5052400;28;20172;-58
2022/09/29 12:01:34;;;;;;;3.53;3.08;;;15.10;99.90;;;;;;5052212;28;20566;-58
2022/09/29 12:04:27;;;;;;;5.07;3.53;;;15.20;99.90;;;;;;5033933;28;20679;-58
2022/09/29 12:06:58;;;;;;;5.50;3.15;;;15.00;99.90;;;;;;5052220;28;20169;-58
2022/09/29 12:09:32;;;;;;;7.32;3.70;;;14.90;99.90;;;;;;5051907;28;20201;-59
2022/09/29 12:12:32;;;;;;;8.57;3.60;;;15.20;99.90;;;;;;5052069;28;20173;-58
2022/09/29 12:15:07;;;;;;;4.38;3.17;;;15.20;99.90;;;;;;5052053;28;20184;-59
2022/09/29 12:17:36;;;;;;;6.82;2.72;;;15.30;99.90;;;;;;5051736;28;20729;-58
2022/09/29 12:20:23;;;;;;;5.53;2.50;;;15.50;99.90;;;;;;5051765;28;20552;-58
2022/09/29 12:22:51;;;;;;;7.13;2.35;;;15.70;99.90;;;;;;5051599;28;20295;-59
2022/09/29 12:25:23;;;;;;;5.03;2.70;;;15.90;99.90;;;;;;5051808;28;20224;-58
2022/09/29 12:27:53;;;;;;;8.27;3.00;;;16.20;99.90;;;;;;5051971;28;20197;-59
2022/09/29 12:30:45;;;;;;;6.28;2.80;;;15.80;99.90;;;;;;5051778;28;20162;-58
2022/09/29 12:33:20;;;;;;;5.88;3.30;;;15.80;99.90;;;;;;5051576;28;20169;-59
2022/09/29 12:35:52;;;;;;;6.10;2.90;;;15.60;99.90;;;;;;5051511;28;20180;-58
2022/09/29 12:38:51;;;;;;;6.15;3.35;;;15.50;99.90;;;;;;5051410;28;20246;-58
2022/09/29 12:41:27;;;;;;;7.53;3.28;;;15.50;99.90;;;;;;5028354;28;20679;-58
2022/09/29 12:44:04;;;;;;;8.77;3.30;;;14.90;99.90;;;;;;5033758;28;20570;-57
2022/09/29 12:46:40;;;;;;;7.72;3.50;;;15.20;99.90;;;;;;5051552;28;20161;-57
2022/09/29 12:49:06;;;;;;;8.07;3.63;;;;;;;;;;5051298;28;20643;-58
2022/09/29 12:51:49;;;;;;;9.15;3.55;;;15.20;99.90;;;;;;5051225;28;20169;-58
2022/09/29 12:54:54;;;;;;;5.70;3.42;;;15.30;99.90;;;;;;5051204;28;20651;-58
2022/09/29 12:57:25;;;;;;;6.10;3.70;;;15.30;99.90;;;;;;5050778;28;20192;-59
2022/09/29 13:00:01;;;;;;;10.80;3.38;;;15.30;99.90;;;;;;5051163;28;20188;-58
2022/09/29 13:02:28;;;;;;;8.95;3.38;;;;;;;;;;5051600;28;20208;-59
2022/09/29 13:05:25;;;;;;;8.30;3.65;;;15.20;99.90;;;;;;5051046;28;20165;-59
2022/09/29 13:08:16;;;;;;;5.88;3.05;;;15.30;99.90;;;;;;5056897;28;20172;-58
2022/09/29 13:10:42;;;;;;;8.95;3.28;;;;;;;;;;5070039;28;20224;-58
2022/09/29 13:13:20;;;;;;;7.63;3.58;;;15.20;99.90;;;;;;5068328;28;20177;-58
2022/09/29 13:16:27;;;;;;;7.45;3.53;;;15.30;99.90;;;;;;5049522;28;20623;-58
2022/09/29 13:19:40;;;;;;;6.82;3.40;;;15.50;99.90;;;;;;5059898;28;20180;-59
2022/09/29 13:22:33;;;;;;;4.75;3.22;;;15.30;99.90;;;;;;5070247;28;20237;-59
2022/09/29 13:25:27;;;;;;;5.68;3.60;;;15.40;99.90;;;;;;5070896;28;20181;-59
2022/09/29 13:27:56;;;;;;;5.95;3.50;;;15.40;99.90;;;;;;5070913;28;20259;-59
2022/09/29 13:30:35;;;;;;;11.82;3.67;;;15.50;99.90;;;;;;5052595;28;20164;-59
2022/09/29 13:33:17;;;;;;;5.93;4.35;;;15.60;99.90;;;;;;5062394;28;20180;-55
2022/09/29 13:35:46;;;;;;;8.55;4.07;;;15.60;99.90;;;;;;5069829;28;20176;-56
2022/09/29 13:38:25;;;;;;;6.93;3.63;;;15.50;99.90;;;;;;5069544;28;20203;-55